Wilson Lista — 8PRW — position and weather

sailwx.info

Track history (hours):
 
Tides and Currents Weather Stations Pressure Air Temp Water Temp Dewpoint Dewpoint Depression Visibility Wind Speed Wind Dir Waves Ship Positions

Wilson Lista

Last reported at 2017-Jun-27 18:28 UTC. Time now 2017-Jun-28 16:02 UTC.
Position N 49°47' W 003°29'.

Length 88 m; draft 5.6 m.

Type: Cargo ship. MMSI: 314188000.

Date/timePositionNaut miles runAvg speedWind from/ knotsBaromVisibWave heightAir tempDewpointWater temp
2017-Jun-27 18:28N 49°47' W 003°29'4 8.4
2017-Jun-27 18:00N 49°49' W 003°24'5 9.1
2017-Jun-27 17:29N 49°52' W 003°17'5 9.8
2017-Jun-27 17:00N 49°54' W 003°11'510.4
2017-Jun-27 16:30N 49°57' W 003°04'510.9
2017-Jun-27 16:00N 49°60' W 002°57'36 9.4
2017-Jun-27 12:15N 50°10' W 002°04'1 6.2
2017-Jun-27 12:00N 50°10' W 002°01'3 5.7
2017-Jun-27 11:30N 50°11' W 001°57'3 5.2
2017-Jun-27 10:59N 50°12' W 001°53'18 5.5
2017-Jun-27 07:43N 50°17' W 001°26'2 7.9
2017-Jun-27 07:29N 50°17' W 001°23'4210.8
2017-Jun-27 03:34N 50°29' W 000°20'110.5
2017-Jun-27 03:30N 50°29' W 000°19'510.3
2017-Jun-27 03:00N 50°31' W 000°11'5 9.8
2017-Jun-27 02:30N 50°32' W 000°04'5 9.3
2017-Jun-27 02:00N 50°33' E 000°04'4 8.8
2017-Jun-27 01:30N 50°34' E 000°10'4 8.2
2017-Jun-27 01:00N 50°36' E 000°16'5 7.5
2017-Jun-27 00:17N 50°37' E 000°25'2 6.9
2017-Jun-26 23:59N 50°38' E 000°28'3 6.7
2017-Jun-26 23:27N 50°39' E 000°33'3 6.6
2017-Jun-26 23:00N 50°40' E 000°37'5 6.9
2017-Jun-26 22:18N 50°43' E 000°43'3 7.6
2017-Jun-26 21:57N 50°44' E 000°47'4 8.4
2017-Jun-26 21:27N 50°47' E 000°52'8 9.7
2017-Jun-26 20:35N 50°52' E 001°03'110.7
2017-Jun-26 20:30N 50°52' E 001°04'510.6
2017-Jun-26 20:00N 50°56' E 001°10'610.9
2017-Jun-26 19:30N 50°59' E 001°17'511.1
2017-Jun-26 19:00N 51°03' E 001°24'510.3
2017-Jun-26 18:30N 51°06' E 001°30'5 9.2
2017-Jun-26 18:00N 51°09' E 001°36'4 8.2
2017-Jun-26 17:30N 51°12' E 001°41'4 7.8
2017-Jun-26 17:00N 51°14' E 001°45'4 7.5
2017-Jun-26 16:30N 51°17' E 001°49'3 6.9
2017-Jun-26 16:00N 51°20' E 001°52'3 6.8
2017-Jun-26 15:31N 51°23' E 001°56'3 6.4
2017-Jun-26 15:00N 51°25' E 001°59'3 6.8
2017-Jun-26 14:30N 51°28' E 002°02'155 8.5
2017-Jun-25 20:20N 53°28' E 004°42'3 7.0
2017-Jun-25 19:57N 53°29' E 004°46'3 6.8
2017-Jun-25 19:31N 53°30' E 004°51'3 6.5
2017-Jun-25 19:00N 53°32' E 004°56'3 6.3
2017-Jun-25 18:30N 53°33' E 005°01'3 5.9
2017-Jun-25 18:00N 53°34' E 005°05'3 6.0
2017-Jun-25 17:30N 53°35' E 005°10'3 6.3
2017-Jun-25 17:01N 53°36' E 005°15'4 7.0
2017-Jun-25 16:30N 53°37' E 005°20'93 7.3
2017-Jun-25 03:48N 54°01' E 007°53'3 8.7
2017-Jun-25 03:30N 54°01' E 007°57'5 9.1
2017-Jun-25 02:56N 54°01' E 008°06'4 9.3
2017-Jun-25 02:31N 54°01' E 008°13'510.8
2017-Jun-25 02:01N 53°60' E 008°22'611.0
2017-Jun-25 01:30N 53°58' E 008°31'5 9.6
2017-Jun-25 01:01N 53°57' E 008°39'4 8.4
2017-Jun-25 00:30N 53°53' E 008°43'4 7.5
2017-Jun-25 00:00N 53°51' E 008°47'3 7.0
2017-Jun-24 23:31N 53°51' E 008°53'4 7.1
2017-Jun-24 23:00N 53°51' E 008°59'3 6.8
2017-Jun-24 22:30N 53°52' E 009°04'3 6.0
2017-Jun-24 22:00N 53°54' E 009°09'0 0.0
2017-Jun-24 21:30N 53°54' E 009°09'2 4.7
2017-Jun-24 21:00N 53°55' E 009°12'4 8.5
2017-Jun-24 20:30N 53°59' E 009°16'5 8.3
2017-Jun-24 19:57N 54°03' E 009°18'27 5.7
2017-Jun-24 15:19N 54°22' E 009°50'3 8.2
2017-Jun-24 14:58N 54°21' E 009°55'5 5.3
2017-Jun-24 13:59N 54°22' E 010°04'3 5.9
2017-Jun-24 13:30N 54°22' E 010°08'0 0.0
2017-Jun-24 13:00N 54°22' E 010°08'32 2.8
2017-Jun-24 01:26N 54°36' E 010°59'3 7.6
2017-Jun-24 01:00N 54°36' E 011°05'4 7.9
2017-Jun-24 00:28N 54°36' E 011°12'13 7.9
2017-Jun-23 22:47N 54°31' E 011°34'2 7.8
2017-Jun-23 22:30N 54°31' E 011°37'4 7.8
2017-Jun-23 22:00N 54°30' E 011°44'4 8.0
2017-Jun-23 21:30N 54°28' E 011°50'8 8.0
2017-Jun-23 20:32N 54°27' E 012°03'0 8.1
2017-Jun-23 20:30N 54°27' E 012°04'4 7.7
2017-Jun-23 20:00N 54°28' E 012°10'4 8.3
2017-Jun-23 19:30N 54°32' E 012°12'4 8.2
2017-Jun-23 19:00N 54°36' E 012°15'4 8.4
2017-Jun-23 18:30N 54°39' E 012°20'4 8.7
2017-Jun-23 18:00N 54°41' E 012°27'51 8.3
2017-Jun-23 11:47N 54°54' E 013°53'3 8.9
2017-Jun-23 11:30N 54°54' E 013°57'5 9.0
2017-Jun-23 10:59N 54°54' E 014°05'5 8.8
2017-Jun-23 10:26N 54°55' E 014°14'4 8.6
2017-Jun-23 10:00N 54°55' E 014°20'4 8.6
2017-Jun-23 09:30N 54°55' E 014°28'4 8.6
2017-Jun-23 09:00N 54°55' E 014°35'4 8.6
2017-Jun-23 08:30N 54°55' E 014°43'4 8.7
2017-Jun-23 08:00N 54°55' E 014°50'4 9.0
2017-Jun-23 07:30N 54°56' E 014°58'4 8.9
2017-Jun-23 07:00N 54°56' E 015°06'37 9.1
2017-Jun-23 02:54N 55°05' E 016°09'5 9.0
2017-Jun-23 02:24N 55°07' E 016°16'5 9.1
2017-Jun-23 01:54N 55°08' E 016°24'4 9.1
2017-Jun-23 01:30N 55°09' E 016°30'4 9.1
2017-Jun-23 01:00N 55°10' E 016°38'5 9.0
2017-Jun-23 00:30N 55°11' E 016°45'5 9.1
2017-Jun-22 23:55N 55°13' E 016°55'4 9.0
2017-Jun-22 23:30N 55°14' E 017°01'4 9.1
2017-Jun-22 23:00N 55°15' E 017°08'5 9.1
2017-Jun-22 22:30N 55°16' E 017°16'5 9.1
2017-Jun-22 22:00N 55°17' E 017°24'5 9.1
2017-Jun-22 21:30N 55°18' E 017°32'5 9.1
2017-Jun-22 21:00N 55°20' E 017°39'5 9.1
2017-Jun-22 20:30N 55°21' E 017°47'5 9.2
2017-Jun-22 20:00N 55°22' E 017°55'5 9.1
2017-Jun-22 19:30N 55°23' E 018°03'4 9.0
2017-Jun-22 19:00N 55°24' E 018°10'5 9.5
2017-Jun-22 18:30N 55°26' E 018°18'5 9.7
2017-Jun-22 18:00N 55°27' E 018°27'4 8.6
2017-Jun-22 17:30N 55°28' E 018°34'4 8.4
2017-Jun-22 17:00N 55°29' E 018°41'4 8.3
2017-Jun-22 16:30N 55°30' E 018°48'5 8.5
2017-Jun-22 15:52N 55°31' E 018°57'80 2.1
2017-Jun-21 01:37N 55°29' E 016°37'110.2
2017-Jun-21 01:30N 55°29' E 016°35'3710.4
2017-Jun-20 21:59N 55°25' E 015°31'510.5
2017-Jun-20 21:29N 55°25' E 015°22'510.4
2017-Jun-20 21:00N 55°24' E 015°13'510.4
2017-Jun-20 20:30N 55°24' E 015°04'510.4
2017-Jun-20 20:00N 55°23' E 014°55'510.5
2017-Jun-20 19:30N 55°23' E 014°45'5 9.5
2017-Jun-20 19:00N 55°21' E 014°38'510.0
2017-Jun-20 18:30N 55°17' E 014°32'510.0
2017-Jun-20 18:00N 55°14' E 014°26'5 9.7
2017-Jun-20 17:30N 55°11' E 014°19'5 9.7
2017-Jun-20 16:57N 55°09' E 014°10'510.0
2017-Jun-20 16:30N 55°11' E 014°02'510.2
2017-Jun-20 16:00N 55°11' E 013°53'510.1
2017-Jun-20 15:28N 55°12' E 013°44'510.3
2017-Jun-20 14:56N 55°12' E 013°34'1610.3
2017-Jun-20 13:24N 55°14' E 013°07'410.1
2017-Jun-20 12:57N 55°15' E 012°59'510.0
2017-Jun-20 12:30N 55°15' E 012°51'510.2
2017-Jun-20 12:00N 55°17' E 012°43'4 8.2
2017-Jun-20 11:30N 55°20' E 012°39'5 9.7
2017-Jun-20 11:00N 55°25' E 012°40'510.1
2017-Jun-20 10:30N 55°30' E 012°41'611.0
2017-Jun-20 10:00N 55°36' E 012°42'611.5
2017-Jun-20 09:30N 55°41' E 012°41'510.6
2017-Jun-20 09:00N 55°47' E 012°41'510.6
2017-Jun-20 08:30N 55°52' E 012°39'510.1
2017-Jun-20 08:00N 55°57' E 012°40'4 7.7
2017-Jun-20 07:30N 56°00' E 012°43'0 0.1
2017-Jun-20 06:59N 56°00' E 012°43'0 0.0
2017-Jun-20 06:29N 56°00' E 012°43'0 0.0
2017-Jun-20 05:59N 56°00' E 012°43'0 0.0
2017-Jun-20 05:25N 56°00' E 012°43'0 0.0
2017-Jun-20 04:58N 56°00' E 012°43'0 0.0
2017-Jun-20 04:28N 56°00' E 012°43'0 0.0
2017-Jun-20 03:58N 56°00' E 012°43'0 0.0
2017-Jun-20 03:28N 56°00' E 012°43'0 0.0
2017-Jun-20 03:00N 56°00' E 012°43'0 0.0
2017-Jun-20 02:30N 56°00' E 012°43'0 0.0
2017-Jun-20 02:00N 56°00' E 012°43'0 0.0
2017-Jun-20 01:30N 56°00' E 012°43'0 0.0
2017-Jun-20 00:59N 56°00' E 012°43'0 0.0
2017-Jun-20 00:29N 56°00' E 012°43'0 0.0
2017-Jun-19 23:59N 56°00' E 012°43'0 0.0
2017-Jun-19 23:29N 56°00' E 012°43'0 0.0
2017-Jun-19 22:59N 56°00' E 012°43'0 0.0
2017-Jun-19 22:28N 56°00' E 012°43'0 0.0
2017-Jun-19 21:58N 56°00' E 012°43'0 0.0
2017-Jun-19 21:28N 56°00' E 012°43'0 0.0
2017-Jun-19 20:58N 56°00' E 012°43'0 0.0
2017-Jun-19 20:31N 56°00' E 012°43'0 0.0
2017-Jun-19 20:00N 56°00' E 012°43'0 0.0
2017-Jun-19 19:30N 56°00' E 012°43'0 0.0
2017-Jun-19 19:00N 56°00' E 012°43'0 0.0
2017-Jun-19 18:27N 56°00' E 012°43'0 0.0
2017-Jun-19 17:56N 56°00' E 012°43'0 0.0
2017-Jun-19 17:29N 56°00' E 012°43'0 0.0
2017-Jun-19 16:59N 56°00' E 012°43'0 0.0
2017-Jun-19 16:29N 56°00' E 012°43'0 0.0
2017-Jun-19 15:59N 56°00' E 012°43'0 0.0
2017-Jun-19 15:28N 56°00' E 012°43'0 0.0
2017-Jun-19 14:55N 56°00' E 012°43'0 0.0
2017-Jun-19 14:28N 56°00' E 012°43'0 0.0
2017-Jun-19 13:29N 56°00' E 012°43'0 0.0
2017-Jun-19 12:58N 56°00' E 012°43'0 0.0
2017-Jun-19 12:28N 56°00' E 012°43'0 0.0
2017-Jun-19 11:58N 56°00' E 012°43'0 0.0
2017-Jun-19 11:28N 56°00' E 012°43'0 0.0
2017-Jun-19 10:55N 56°00' E 012°43'0 0.0
2017-Jun-19 10:30N 56°00' E 012°43'0 0.0
2017-Jun-19 10:00N 56°00' E 012°43'0 0.0
2017-Jun-19 09:30N 56°00' E 012°43'0 0.0
2017-Jun-19 09:00N 56°00' E 012°43'0 0.0
2017-Jun-19 08:30N 56°00' E 012°43'0 0.0
2017-Jun-19 07:59N 56°00' E 012°43'0 0.0
2017-Jun-19 07:29N 56°00' E 012°43'0 0.0
2017-Jun-19 06:59N 56°00' E 012°43'0 0.0
2017-Jun-19 06:29N 56°00' E 012°43'0 0.0
2017-Jun-19 05:58N 56°00' E 012°43'0 0.0
2017-Jun-19 05:28N 56°00' E 012°43'0 0.0
2017-Jun-19 04:58N 56°00' E 012°43'0 0.0
2017-Jun-19 04:28N 56°00' E 012°43'0 0.0
2017-Jun-19 03:58N 56°00' E 012°43'0 0.0
2017-Jun-19 03:30N 56°00' E 012°43'0 0.0
2017-Jun-19 03:00N 56°00' E 012°43'0 0.0
2017-Jun-19 02:30N 56°00' E 012°43'0 0.0
2017-Jun-19 02:00N 56°00' E 012°43'0 0.0
2017-Jun-19 01:30N 56°00' E 012°43'0 0.0
2017-Jun-19 00:59N 56°00' E 012°43'0 0.0
2017-Jun-19 00:29N 56°00' E 012°43'0 0.0
2017-Jun-18 23:56N 56°00' E 012°43'0 0.0
2017-Jun-18 23:29N 56°00' E 012°43'0 0.0
2017-Jun-18 22:58N 56°00' E 012°43'0 0.0
2017-Jun-18 22:28N 56°00' E 012°43'0 0.0
2017-Jun-18 21:58N 56°00' E 012°43'0 0.0
2017-Jun-18 21:28N 56°00' E 012°43'0 0.0
2017-Jun-18 20:58N 56°00' E 012°43'0 0.0
2017-Jun-18 20:30N 56°00' E 012°43'0 0.0
2017-Jun-18 20:00N 56°00' E 012°43'0 0.0
2017-Jun-18 19:30N 56°00' E 012°43'0 0.0
2017-Jun-18 18:57N 56°00' E 012°43'0 0.0
2017-Jun-18 18:29N 56°00' E 012°43'0 0.0
2017-Jun-18 17:59N 56°00' E 012°43'0 0.0
2017-Jun-18 17:29N 56°00' E 012°43'0 0.0
2017-Jun-18 16:59N 56°00' E 012°43'0 0.0
2017-Jun-18 16:29N 56°00' E 012°43'0 0.0
2017-Jun-18 15:58N 56°00' E 012°43'0 0.0
2017-Jun-18 15:28N 56°00' E 012°43'0 0.0
2017-Jun-18 14:58N 56°00' E 012°43'0 0.0
2017-Jun-18 14:01N 56°00' E 012°43'0 0.0
2017-Jun-18 13:27N 56°00' E 012°43'0 0.0
2017-Jun-18 13:00N 56°00' E 012°43'0 0.0
2017-Jun-18 12:30N 56°00' E 012°43'0 0.0
2017-Jun-18 12:00N 56°00' E 012°43'0 0.0
2017-Jun-18 11:30N 56°00' E 012°43'0 0.0
2017-Jun-18 11:00N 56°00' E 012°43'0 0.0
2017-Jun-18 10:29N 56°00' E 012°43'0 0.0
2017-Jun-18 09:59N 56°00' E 012°43'0 0.0
2017-Jun-18 09:29N 56°00' E 012°43'0 0.0
2017-Jun-18 08:59N 56°00' E 012°43'0 0.0
2017-Jun-18 08:29N 56°00' E 012°43'0 0.0
2017-Jun-18 07:59N 56°00' E 012°43'0 0.0
2017-Jun-18 07:28N 56°00' E 012°43'0 0.0
2017-Jun-18 06:59N 56°00' E 012°43'0 0.0
2017-Jun-18 06:29N 56°00' E 012°43'0 0.0
2017-Jun-18 05:59N 56°00' E 012°43'0 0.0
2017-Jun-18 05:26N 56°00' E 012°43'0 0.0
2017-Jun-18 04:58N 56°00' E 012°43'0 0.0
2017-Jun-18 04:28N 56°00' E 012°43'0 0.0
2017-Jun-18 03:58N 56°00' E 012°43'0 0.0
2017-Jun-18 03:28N 56°00' E 012°43'0 0.0
2017-Jun-18 03:00N 56°00' E 012°43'0 0.0
2017-Jun-18 02:30N 56°00' E 012°43'0 0.0
2017-Jun-18 02:00N 56°00' E 012°43'0 0.0
2017-Jun-18 01:30N 56°00' E 012°43'0 0.0
2017-Jun-18 01:00N 56°00' E 012°43'0 0.0
2017-Jun-18 00:29N 56°00' E 012°43'0 0.0
2017-Jun-17 23:59N 56°00' E 012°43'0 0.0
2017-Jun-17 23:29N 56°00' E 012°43'0 0.0
2017-Jun-17 22:59N 56°00' E 012°43'0 0.0
2017-Jun-17 22:29N 56°00' E 012°43'0 0.0
2017-Jun-17 21:58N 56°00' E 012°43'0 0.0
2017-Jun-17 21:28N 56°00' E 012°43'0 0.0
2017-Jun-17 20:58N 56°00' E 012°43'0 0.0
2017-Jun-17 20:28N 56°00' E 012°43'0 0.0
2017-Jun-17 20:00N 56°00' E 012°43'0 0.0
2017-Jun-17 19:30N 56°00' E 012°43'0 0.0
2017-Jun-17 19:00N 56°00' E 012°43'0 0.0
2017-Jun-17 18:30N 56°00' E 012°43'  
Track history (hours):
 
Tides and Currents Weather Stations Pressure Air Temp Water Temp Dewpoint Dewpoint Depression Visibility Wind Speed Wind Dir Waves Ship Positions

Wilson Lista

Last reported at 2017-Jun-27 18:28 UTC. Time now 2017-Jun-28 16:02 UTC.
Position N 49°47' W 003°29'.

Length 88 m; draft 5.6 m.

Type: Cargo ship. MMSI: 314188000.

Date/timePositionNaut miles runAvg speedWind from/ knotsBaromVisibWave heightAir tempDewpointWater temp
2017-Jun-27 18:28N 49°47' W 003°29'4 8.4
2017-Jun-27 18:00N 49°49' W 003°24'5 9.1
2017-Jun-27 17:29N 49°52' W 003°17'5 9.8
2017-Jun-27 17:00N 49°54' W 003°11'510.4
2017-Jun-27 16:30N 49°57' W 003°04'510.9
2017-Jun-27 16:00N 49°60' W 002°57'36 9.4
2017-Jun-27 12:15N 50°10' W 002°04'1 6.2
2017-Jun-27 12:00N 50°10' W 002°01'3 5.7
2017-Jun-27 11:30N 50°11' W 001°57'3 5.2
2017-Jun-27 10:59N 50°12' W 001°53'18 5.5
2017-Jun-27 07:43N 50°17' W 001°26'2 7.9
2017-Jun-27 07:29N 50°17' W 001°23'4210.8
2017-Jun-27 03:34N 50°29' W 000°20'110.5
2017-Jun-27 03:30N 50°29' W 000°19'510.3
2017-Jun-27 03:00N 50°31' W 000°11'5 9.8
2017-Jun-27 02:30N 50°32' W 000°04'5 9.3
2017-Jun-27 02:00N 50°33' E 000°04'4 8.8
2017-Jun-27 01:30N 50°34' E 000°10'4 8.2
2017-Jun-27 01:00N 50°36' E 000°16'5 7.5
2017-Jun-27 00:17N 50°37' E 000°25'2 6.9
2017-Jun-26 23:59N 50°38' E 000°28'3 6.7
2017-Jun-26 23:27N 50°39' E 000°33'3 6.6
2017-Jun-26 23:00N 50°40' E 000°37'5 6.9
2017-Jun-26 22:18N 50°43' E 000°43'3 7.6
2017-Jun-26 21:57N 50°44' E 000°47'4 8.4
2017-Jun-26 21:27N 50°47' E 000°52'8 9.7
2017-Jun-26 20:35N 50°52' E 001°03'110.7
2017-Jun-26 20:30N 50°52' E 001°04'510.6
2017-Jun-26 20:00N 50°56' E 001°10'610.9
2017-Jun-26 19:30N 50°59' E 001°17'511.1
2017-Jun-26 19:00N 51°03' E 001°24'510.3
2017-Jun-26 18:30N 51°06' E 001°30'5 9.2
2017-Jun-26 18:00N 51°09' E 001°36'4 8.2
2017-Jun-26 17:30N 51°12' E 001°41'4 7.8
2017-Jun-26 17:00N 51°14' E 001°45'4 7.5
2017-Jun-26 16:30N 51°17' E 001°49'3 6.9
2017-Jun-26 16:00N 51°20' E 001°52'3 6.8
2017-Jun-26 15:31N 51°23' E 001°56'3 6.4
2017-Jun-26 15:00N 51°25' E 001°59'3 6.8
2017-Jun-26 14:30N 51°28' E 002°02'155 8.5
2017-Jun-25 20:20N 53°28' E 004°42'3 7.0
2017-Jun-25 19:57N 53°29' E 004°46'3 6.8
2017-Jun-25 19:31N 53°30' E 004°51'3 6.5
2017-Jun-25 19:00N 53°32' E 004°56'3 6.3
2017-Jun-25 18:30N 53°33' E 005°01'3 5.9
2017-Jun-25 18:00N 53°34' E 005°05'3 6.0
2017-Jun-25 17:30N 53°35' E 005°10'3 6.3
2017-Jun-25 17:01N 53°36' E 005°15'4 7.0
2017-Jun-25 16:30N 53°37' E 005°20'93 7.3
2017-Jun-25 03:48N 54°01' E 007°53'3 8.7
2017-Jun-25 03:30N 54°01' E 007°57'5 9.1
2017-Jun-25 02:56N 54°01' E 008°06'4 9.3
2017-Jun-25 02:31N 54°01' E 008°13'510.8
2017-Jun-25 02:01N 53°60' E 008°22'611.0
2017-Jun-25 01:30N 53°58' E 008°31'5 9.6
2017-Jun-25 01:01N 53°57' E 008°39'4 8.4
2017-Jun-25 00:30N 53°53' E 008°43'4 7.5
2017-Jun-25 00:00N 53°51' E 008°47'3 7.0
2017-Jun-24 23:31N 53°51' E 008°53'4 7.1
2017-Jun-24 23:00N 53°51' E 008°59'3 6.8
2017-Jun-24 22:30N 53°52' E 009°04'3 6.0
2017-Jun-24 22:00N 53°54' E 009°09'0 0.0
2017-Jun-24 21:30N 53°54' E 009°09'2 4.7
2017-Jun-24 21:00N 53°55' E 009°12'4 8.5
2017-Jun-24 20:30N 53°59' E 009°16'5 8.3
2017-Jun-24 19:57N 54°03' E 009°18'27 5.7
2017-Jun-24 15:19N 54°22' E 009°50'3 8.2
2017-Jun-24 14:58N 54°21' E 009°55'5 5.3
2017-Jun-24 13:59N 54°22' E 010°04'3 5.9
2017-Jun-24 13:30N 54°22' E 010°08'0 0.0
2017-Jun-24 13:00N 54°22' E 010°08'32 2.8
2017-Jun-24 01:26N 54°36' E 010°59'3 7.6
2017-Jun-24 01:00N 54°36' E 011°05'4 7.9
2017-Jun-24 00:28N 54°36' E 011°12'13 7.9
2017-Jun-23 22:47N 54°31' E 011°34'2 7.8
2017-Jun-23 22:30N 54°31' E 011°37'4 7.8
2017-Jun-23 22:00N 54°30' E 011°44'4 8.0
2017-Jun-23 21:30N 54°28' E 011°50'8 8.0
2017-Jun-23 20:32N 54°27' E 012°03'0 8.1
2017-Jun-23 20:30N 54°27' E 012°04'4 7.7
2017-Jun-23 20:00N 54°28' E 012°10'4 8.3
2017-Jun-23 19:30N 54°32' E 012°12'4 8.2
2017-Jun-23 19:00N 54°36' E 012°15'4 8.4
2017-Jun-23 18:30N 54°39' E 012°20'4 8.7
2017-Jun-23 18:00N 54°41' E 012°27'51 8.3
2017-Jun-23 11:47N 54°54' E 013°53'3 8.9
2017-Jun-23 11:30N 54°54' E 013°57'5 9.0
2017-Jun-23 10:59N 54°54' E 014°05'5 8.8
2017-Jun-23 10:26N 54°55' E 014°14'4 8.6
2017-Jun-23 10:00N 54°55' E 014°20'4 8.6
2017-Jun-23 09:30N 54°55' E 014°28'4 8.6
2017-Jun-23 09:00N 54°55' E 014°35'4 8.6
2017-Jun-23 08:30N 54°55' E 014°43'4 8.7
2017-Jun-23 08:00N 54°55' E 014°50'4 9.0
2017-Jun-23 07:30N 54°56' E 014°58'4 8.9
2017-Jun-23 07:00N 54°56' E 015°06'37 9.1
2017-Jun-23 02:54N 55°05' E 016°09'5 9.0
2017-Jun-23 02:24N 55°07' E 016°16'5 9.1
2017-Jun-23 01:54N 55°08' E 016°24'4 9.1
2017-Jun-23 01:30N 55°09' E 016°30'4 9.1
2017-Jun-23 01:00N 55°10' E 016°38'5 9.0
2017-Jun-23 00:30N 55°11' E 016°45'5 9.1
2017-Jun-22 23:55N 55°13' E 016°55'4 9.0
2017-Jun-22 23:30N 55°14' E 017°01'4 9.1
2017-Jun-22 23:00N 55°15' E 017°08'5 9.1
2017-Jun-22 22:30N 55°16' E 017°16'5 9.1
2017-Jun-22 22:00N 55°17' E 017°24'5 9.1
2017-Jun-22 21:30N 55°18' E 017°32'5 9.1
2017-Jun-22 21:00N 55°20' E 017°39'5 9.1
2017-Jun-22 20:30N 55°21' E 017°47'5 9.2
2017-Jun-22 20:00N 55°22' E 017°55'5 9.1
2017-Jun-22 19:30N 55°23' E 018°03'4 9.0
2017-Jun-22 19:00N 55°24' E 018°10'5 9.5
2017-Jun-22 18:30N 55°26' E 018°18'5 9.7
2017-Jun-22 18:00N 55°27' E 018°27'4 8.6
2017-Jun-22 17:30N 55°28' E 018°34'4 8.4
2017-Jun-22 17:00N 55°29' E 018°41'4 8.3
2017-Jun-22 16:30N 55°30' E 018°48'5 8.5
2017-Jun-22 15:52N 55°31' E 018°57'80 2.1
2017-Jun-21 01:37N 55°29' E 016°37'110.2
2017-Jun-21 01:30N 55°29' E 016°35'3710.4
2017-Jun-20 21:59N 55°25' E 015°31'510.5
2017-Jun-20 21:29N 55°25' E 015°22'510.4
2017-Jun-20 21:00N 55°24' E 015°13'510.4
2017-Jun-20 20:30N 55°24' E 015°04'510.4
2017-Jun-20 20:00N 55°23' E 014°55'510.5
2017-Jun-20 19:30N 55°23' E 014°45'5 9.5
2017-Jun-20 19:00N 55°21' E 014°38'510.0
2017-Jun-20 18:30N 55°17' E 014°32'510.0
2017-Jun-20 18:00N 55°14' E 014°26'5 9.7
2017-Jun-20 17:30N 55°11' E 014°19'5 9.7
2017-Jun-20 16:57N 55°09' E 014°10'510.0
2017-Jun-20 16:30N 55°11' E 014°02'510.2
2017-Jun-20 16:00N 55°11' E 013°53'510.1
2017-Jun-20 15:28N 55°12' E 013°44'510.3
2017-Jun-20 14:56N 55°12' E 013°34'1610.3
2017-Jun-20 13:24N 55°14' E 013°07'410.1
2017-Jun-20 12:57N 55°15' E 012°59'510.0
2017-Jun-20 12:30N 55°15' E 012°51'510.2
2017-Jun-20 12:00N 55°17' E 012°43'4 8.2
2017-Jun-20 11:30N 55°20' E 012°39'5 9.7
2017-Jun-20 11:00N 55°25' E 012°40'510.1
2017-Jun-20 10:30N 55°30' E 012°41'611.0
2017-Jun-20 10:00N 55°36' E 012°42'611.5
2017-Jun-20 09:30N 55°41' E 012°41'510.6
2017-Jun-20 09:00N 55°47' E 012°41'510.6
2017-Jun-20 08:30N 55°52' E 012°39'510.1
2017-Jun-20 08:00N 55°57' E 012°40'4 7.7
2017-Jun-20 07:30N 56°00' E 012°43'0 0.1
2017-Jun-20 06:59N 56°00' E 012°43'0 0.0
2017-Jun-20 06:29N 56°00' E 012°43'0 0.0
2017-Jun-20 05:59N 56°00' E 012°43'0 0.0
2017-Jun-20 05:25N 56°00' E 012°43'0 0.0
2017-Jun-20 04:58N 56°00' E 012°43'0 0.0
2017-Jun-20 04:28N 56°00' E 012°43'0 0.0
2017-Jun-20 03:58N 56°00' E 012°43'0 0.0
2017-Jun-20 03:28N 56°00' E 012°43'0 0.0
2017-Jun-20 03:00N 56°00' E 012°43'0 0.0
2017-Jun-20 02:30N 56°00' E 012°43'0 0.0
2017-Jun-20 02:00N 56°00' E 012°43'0 0.0
2017-Jun-20 01:30N 56°00' E 012°43'0 0.0
2017-Jun-20 00:59N 56°00' E 012°43'0 0.0
2017-Jun-20 00:29N 56°00' E 012°43'0 0.0
2017-Jun-19 23:59N 56°00' E 012°43'0 0.0
2017-Jun-19 23:29N 56°00' E 012°43'0 0.0
2017-Jun-19 22:59N 56°00' E 012°43'0 0.0
2017-Jun-19 22:28N 56°00' E 012°43'0 0.0
2017-Jun-19 21:58N 56°00' E 012°43'0 0.0
2017-Jun-19 21:28N 56°00' E 012°43'0 0.0
2017-Jun-19 20:58N 56°00' E 012°43'0 0.0
2017-Jun-19 20:31N 56°00' E 012°43'0 0.0
2017-Jun-19 20:00N 56°00' E 012°43'0 0.0
2017-Jun-19 19:30N 56°00' E 012°43'0 0.0
2017-Jun-19 19:00N 56°00' E 012°43'0 0.0
2017-Jun-19 18:27N 56°00' E 012°43'0 0.0
2017-Jun-19 17:56N 56°00' E 012°43'0 0.0
2017-Jun-19 17:29N 56°00' E 012°43'0 0.0
2017-Jun-19 16:59N 56°00' E 012°43'0 0.0
2017-Jun-19 16:29N 56°00' E 012°43'0 0.0
2017-Jun-19 15:59N 56°00' E 012°43'0 0.0
2017-Jun-19 15:28N 56°00' E 012°43'0 0.0
2017-Jun-19 14:55N 56°00' E 012°43'0 0.0
2017-Jun-19 14:28N 56°00' E 012°43'0 0.0
2017-Jun-19 13:29N 56°00' E 012°43'0 0.0
2017-Jun-19 12:58N 56°00' E 012°43'0 0.0
2017-Jun-19 12:28N 56°00' E 012°43'0 0.0
2017-Jun-19 11:58N 56°00' E 012°43'0 0.0
2017-Jun-19 11:28N 56°00' E 012°43'0 0.0
2017-Jun-19 10:55N 56°00' E 012°43'0 0.0
2017-Jun-19 10:30N 56°00' E 012°43'0 0.0
2017-Jun-19 10:00N 56°00' E 012°43'0 0.0
2017-Jun-19 09:30N 56°00' E 012°43'0 0.0
2017-Jun-19 09:00N 56°00' E 012°43'0 0.0
2017-Jun-19 08:30N 56°00' E 012°43'0 0.0
2017-Jun-19 07:59N 56°00' E 012°43'0 0.0
2017-Jun-19 07:29N 56°00' E 012°43'0 0.0
2017-Jun-19 06:59N 56°00' E 012°43'0 0.0
2017-Jun-19 06:29N 56°00' E 012°43'0 0.0
2017-Jun-19 05:58N 56°00' E 012°43'0 0.0
2017-Jun-19 05:28N 56°00' E 012°43'0 0.0
2017-Jun-19 04:58N 56°00' E 012°43'0 0.0
2017-Jun-19 04:28N 56°00' E 012°43'0 0.0
2017-Jun-19 03:58N 56°00' E 012°43'0 0.0
2017-Jun-19 03:30N 56°00' E 012°43'0 0.0
2017-Jun-19 03:00N 56°00' E 012°43'0 0.0
2017-Jun-19 02:30N 56°00' E 012°43'0 0.0
2017-Jun-19 02:00N 56°00' E 012°43'0 0.0
2017-Jun-19 01:30N 56°00' E 012°43'0 0.0
2017-Jun-19 00:59N 56°00' E 012°43'0 0.0
2017-Jun-19 00:29N 56°00' E 012°43'0 0.0
2017-Jun-18 23:56N 56°00' E 012°43'0 0.0
2017-Jun-18 23:29N 56°00' E 012°43'0 0.0
2017-Jun-18 22:58N 56°00' E 012°43'0 0.0
2017-Jun-18 22:28N 56°00' E 012°43'0 0.0
2017-Jun-18 21:58N 56°00' E 012°43'0 0.0
2017-Jun-18 21:28N 56°00' E 012°43'0 0.0
2017-Jun-18 20:58N 56°00' E 012°43'0 0.0
2017-Jun-18 20:30N 56°00' E 012°43'0 0.0
2017-Jun-18 20:00N 56°00' E 012°43'0 0.0
2017-Jun-18 19:30N 56°00' E 012°43'0 0.0
2017-Jun-18 18:57N 56°00' E 012°43'0 0.0
2017-Jun-18 18:29N 56°00' E 012°43'0 0.0
2017-Jun-18 17:59N 56°00' E 012°43'0 0.0
2017-Jun-18 17:29N 56°00' E 012°43'0 0.0
2017-Jun-18 16:59N 56°00' E 012°43'0 0.0
2017-Jun-18 16:29N 56°00' E 012°43'0 0.0
2017-Jun-18 15:58N 56°00' E 012°43'0 0.0
2017-Jun-18 15:28N 56°00' E 012°43'0 0.0
2017-Jun-18 14:58N 56°00' E 012°43'0 0.0
2017-Jun-18 14:01N 56°00' E 012°43'0 0.0
2017-Jun-18 13:27N 56°00' E 012°43'0 0.0
2017-Jun-18 13:00N 56°00' E 012°43'0 0.0
2017-Jun-18 12:30N 56°00' E 012°43'0 0.0
2017-Jun-18 12:00N 56°00' E 012°43'0 0.0
2017-Jun-18 11:30N 56°00' E 012°43'0 0.0
2017-Jun-18 11:00N 56°00' E 012°43'0 0.0
2017-Jun-18 10:29N 56°00' E 012°43'0 0.0
2017-Jun-18 09:59N 56°00' E 012°43'0 0.0
2017-Jun-18 09:29N 56°00' E 012°43'0 0.0
2017-Jun-18 08:59N 56°00' E 012°43'0 0.0
2017-Jun-18 08:29N 56°00' E 012°43'0 0.0
2017-Jun-18 07:59N 56°00' E 012°43'0 0.0
2017-Jun-18 07:28N 56°00' E 012°43'0 0.0
2017-Jun-18 06:59N 56°00' E 012°43'0 0.0
2017-Jun-18 06:29N 56°00' E 012°43'0 0.0
2017-Jun-18 05:59N 56°00' E 012°43'0 0.0
2017-Jun-18 05:26N 56°00' E 012°43'0 0.0
2017-Jun-18 04:58N 56°00' E 012°43'0 0.0
2017-Jun-18 04:28N 56°00' E 012°43'0 0.0
2017-Jun-18 03:58N 56°00' E 012°43'0 0.0
2017-Jun-18 03:28N 56°00' E 012°43'0 0.0
2017-Jun-18 03:00N 56°00' E 012°43'0 0.0
2017-Jun-18 02:30N 56°00' E 012°43'0 0.0
2017-Jun-18 02:00N 56°00' E 012°43'0 0.0
2017-Jun-18 01:30N 56°00' E 012°43'0 0.0
2017-Jun-18 01:00N 56°00' E 012°43'0 0.0
2017-Jun-18 00:29N 56°00' E 012°43'0 0.0
2017-Jun-17 23:59N 56°00' E 012°43'0 0.0
2017-Jun-17 23:29N 56°00' E 012°43'0 0.0
2017-Jun-17 22:59N 56°00' E 012°43'0 0.0
2017-Jun-17 22:29N 56°00' E 012°43'0 0.0
2017-Jun-17 21:58N 56°00' E 012°43'0 0.0
2017-Jun-17 21:28N 56°00' E 012°43'0 0.0
2017-Jun-17 20:58N 56°00' E 012°43'0 0.0
2017-Jun-17 20:28N 56°00' E 012°43'0 0.0
2017-Jun-17 20:00N 56°00' E 012°43'0 0.0
2017-Jun-17 19:30N 56°00' E 012°43'0 0.0
2017-Jun-17 19:00N 56°00' E 012°43'0 0.0
2017-Jun-17 18:30N 56°00' E 012°43'  

Dump ship's entire track history